Time;durP1;ratioP1;P1;durP2;ratioP2;P2;SDS_P1;SDS_P2;PMS_P1;PMS_P2;Temp;Humidity;BMP_temperature;BMP_pressure;BME280_temperature;BME280_humidity;BME280_pressure;Samples;Min_cycle;Max_cycle;Signal;HPM_P1;HPM_P2
2022/10/16 00:00:00;;;;;;;22.08;9.18;;;;;;;;;;1036741;28;20022;-75
2022/10/16 00:00:31;;;;;;;9.98;5.55;;;;;;;;;;1032965;28;20026;-75
2022/10/16 00:01:08;;;;;;;25.77;8.32;;;;;;;;;;1032985;28;20109;-75
2022/10/16 00:01:39;;;;;;;17.45;6.78;;;;;;;;;;1036978;28;20018;-75
2022/10/16 00:02:10;;;;;;;28.23;8.52;;;;;;;;;;1036926;28;20430;-75
2022/10/16 00:02:40;;;;;;;30.10;8.15;;;;;;;;;;1036013;28;20494;-75
2022/10/16 00:03:11;;;;;;;20.30;8.43;;;;;;;;;;1031731;28;20026;-75
2022/10/16 00:03:42;;;;;;;19.80;8.40;;;;;;;;;;1034036;28;20079;-75
2022/10/16 00:04:13;;;;;;;30.25;11.60;;;;;;;;;;1036135;28;20464;-75
2022/10/16 00:04:43;;;;;;;17.30;8.65;;;;;;;;;;1035854;28;20116;-75
2022/10/16 00:05:14;;;;;;;25.75;9.80;;;;;;;;;;1036400;28;20036;-75
2022/10/16 00:05:45;;;;;;;31.45;8.85;;;;;;;;;;1033506;28;20030;-75
2022/10/16 00:06:16;;;;;;;20.40;9.05;;;;;;;;;;1033414;28;20013;-75
2022/10/16 00:06:47;;;;;;;28.75;8.35;;;;;;;;;;1033396;28;20029;-75
2022/10/16 00:07:17;;;;;;;24.90;7.55;;;;;;;;;;1033366;28;20324;-75
2022/10/16 00:07:48;;;;;;;13.73;7.00;;;;;;;;;;1037539;28;20117;-75
2022/10/16 00:08:18;;;;;;;17.13;8.68;;;;;;;;;;1037452;28;20030;-75
2022/10/16 00:08:49;;;;;;;18.05;7.35;;;;;;;;;;1036776;28;20028;-75
2022/10/16 00:09:20;;;;;;;21.50;8.75;;;;;;;;;;1037526;28;20030;-75
2022/10/16 00:09:51;;;;;;;20.58;7.20;;;;;;;;;;1038227;28;20070;-75
2022/10/16 00:10:21;;;;;;;16.70;7.82;;;;;;;;;;1036647;28;20026;-75
2022/10/16 00:10:52;;;;;;;18.50;8.23;;;;;;;;;;1036181;28;20022;-75
2022/10/16 00:11:27;;;;;;;19.88;7.10;;;;;;;;;;1032494;28;20030;-75
2022/10/16 00:11:58;;;;;;;16.67;8.60;;;;;;;;;;1032104;28;20026;-75
2022/10/16 00:12:28;;;;;;;30.40;8.20;;;;;;;;;;1033642;28;20026;-75
2022/10/16 00:12:59;;;;;;;24.52;6.15;;;;;;;;;;1037214;28;20085;-76
2022/10/16 00:13:30;;;;;;;34.63;7.72;;;;;;;;;;1034339;28;20620;-75
2022/10/16 00:14:01;;;;;;;24.20;8.20;;;;;;;;;;1035259;28;20102;-75
2022/10/16 00:14:32;;;;;;;27.40;7.65;;;;;;;;;;1034783;28;20104;-75
2022/10/16 00:15:03;;;;;;;18.80;7.18;;;;;;;;;;1034922;28;20124;-75
2022/10/16 00:15:36;;;;;;;25.75;7.63;;;;;;;;;;1033238;28;20018;-75
2022/10/16 00:16:07;;;;;;;20.42;8.77;;;;;;;;;;1033409;28;20317;-75
2022/10/16 00:16:37;;;;;;;17.13;6.60;;;;;;;;;;1033737;28;20415;-75
2022/10/16 00:17:08;;;;;;;19.42;6.57;;;;;;;;;;1032463;28;20029;-75
2022/10/16 00:17:39;;;;;;;17.75;6.13;;;;;;;;;;1033052;28;20450;-75
2022/10/16 00:18:09;;;;;;;15.52;6.47;;;;;;;;;;1036882;28;20067;-75
2022/10/16 00:18:40;;;;;;;12.55;5.32;;;;;;;;;;1036790;28;20421;-75
2022/10/16 00:19:12;;;;;;;13.68;5.53;;;;;;;;;;1032277;28;20466;-75
2022/10/16 00:19:42;;;;;;;19.92;5.53;;;;;;;;;;1036007;28;20470;-75
2022/10/16 00:20:13;;;;;;;8.90;4.22;;;;;;;;;;1036644;28;20018;-75
2022/10/16 00:20:43;;;;;;;16.60;5.57;;;;;;;;;;1038256;28;20091;-75
2022/10/16 00:21:19;;;;;;;20.75;7.38;;;;;;;;;;1036545;28;20045;-75
2022/10/16 00:21:50;;;;;;;17.65;6.50;;;;;;;;;;1032146;28;20400;-75
2022/10/16 00:22:20;;;;;;;16.65;7.22;;;;;;;;;;1033343;28;20028;-75
2022/10/16 00:22:51;;;;;;;19.88;8.30;;;;;;;;;;1032205;28;20367;-75
2022/10/16 00:23:21;;;;;;;15.18;8.68;;;;;;;;;;1032642;28;20025;-75
2022/10/16 00:23:54;;;;;;;18.42;7.07;;;;;;;;;;1037132;28;20029;-75
2022/10/16 00:24:24;;;;;;;26.83;8.68;;;;;;;;;;1036483;28;20064;-75
2022/10/16 00:24:55;;;;;;;23.45;8.25;;;;;;;;;;1033496;28;20116;-75
2022/10/16 00:25:25;;;;;;;27.40;6.75;;;;;;;;;;1033248;28;20026;-75
2022/10/16 00:25:57;;;;;;;32.95;7.63;;;;;;;;;;1033504;28;20028;-75
2022/10/16 00:26:29;;;;;;;28.40;7.00;;;;;;;;;;1033154;28;20026;-75
2022/10/16 00:26:59;;;;;;;20.02;6.63;;;;;;;;;;1033210;28;20486;-75
2022/10/16 00:27:30;;;;;;;12.93;6.00;;;;;;;;;;1033579;28;20347;-75
2022/10/16 00:28:00;;;;;;;11.05;4.97;;;;;;;;;;1033204;28;20497;-75
2022/10/16 00:28:31;;;;;;;9.48;4.85;;;;;;;;;;1032553;28;20495;-75
2022/10/16 00:29:02;;;;;;;18.20;7.32;;;;;;;;;;1033226;28;20098;-75
2022/10/16 00:29:35;;;;;;;25.90;6.10;;;;;;;;;;1036298;28;20052;-77
2022/10/16 00:30:17;;;;;;;15.77;6.03;;;;;;;;;;1031106;28;20378;-75
2022/10/16 00:30:50;;;;;;;16.42;5.10;;;;;;;;;;1029594;28;20037;-75
2022/10/16 00:31:24;;;;;;;18.95;6.90;;;;;;;;;;1028476;28;20039;-75
2022/10/16 00:31:54;;;;;;;17.38;5.65;;;;;;;;;;1031537;28;20042;-75
2022/10/16 00:32:25;;;;;;;14.38;4.63;;;;;;;;;;1032710;28;20484;-75
2022/10/16 00:32:57;;;;;;;23.35;5.13;;;;;;;;;;1036711;28;20026;-75
2022/10/16 00:33:33;;;;;;;15.93;5.32;;;;;;;;;;1033638;28;20034;-75
2022/10/16 00:34:45;;;;;;;10.50;4.53;;;;;;;;;;1032757;28;20030;-75
2022/10/16 00:35:23;;;;;;;18.20;4.32;;;;;;;;;;1031053;28;20030;-75
2022/10/16 00:35:54;;;;;;;18.77;5.35;;;;;;;;;;1028890;28;20043;-75
2022/10/16 00:36:25;;;;;;;17.98;7.35;;;;;;;;;;1026269;28;20518;-75
2022/10/16 00:36:56;;;;;;;14.43;5.43;;;;;;;;;;1027128;28;20121;-75
2022/10/16 00:37:29;;;;;;;7.18;3.80;;;;;;;;;;1027162;28;20096;-75
2022/10/16 00:38:07;;;;;;;16.50;4.55;;;;;;;;;;1031809;28;20158;-75
2022/10/16 00:38:38;;;;;;;26.83;6.13;;;;;;;;;;1032763;28;20026;-75
2022/10/16 00:39:09;;;;;;;13.07;5.28;;;;;;;;;;1033211;28;20029;-75
2022/10/16 00:39:44;;;;;;;9.90;4.72;;;;;;;;;;1033011;28;20037;-75
2022/10/16 00:40:15;;;;;;;10.13;4.75;;;;;;;;;;1031035;28;20536;-75
2022/10/16 00:40:46;;;;;;;10.63;4.85;;;;;;;;;;1033399;28;20125;-75
2022/10/16 00:41:17;;;;;;;25.60;5.97;;;;;;;;;;1032418;28;20027;-75
2022/10/16 00:41:48;;;;;;;13.10;4.50;;;;;;;;;;1029433;28;20109;-75
2022/10/16 00:42:18;;;;;;;11.90;5.25;;;;;;;;;;1028719;28;20534;-75
2022/10/16 00:42:49;;;;;;;7.82;4.55;;;;;;;;;;1029948;28;20029;-75
2022/10/16 00:43:38;;;;;;;9.82;4.88;;;;;;;;;;1026479;28;20053;-75
2022/10/16 00:44:27;;;;;;;16.15;4.70;;;;;;;;;;1023774;28;20027;-75
2022/10/16 00:44:58;;;;;;;9.30;4.78;;;;;;;;;;1032817;28;20085;-75
2022/10/16 00:45:29;;;;;;;11.57;4.45;;;;;;;;;;1032357;28;20051;-75
2022/10/16 00:46:03;;;;;;;9.05;4.70;;;;;;;;;;1032235;28;20156;-75
2022/10/16 00:46:38;;;;;;;9.90;4.22;;;;;;;;;;1032420;28;20489;-75
2022/10/16 00:47:15;;;;;;;15.25;5.13;;;;;;;;;;1031231;28;20573;-75
2022/10/16 00:47:49;;;;;;;15.40;4.70;;;;;;;;;;1028627;28;20145;-75
2022/10/16 00:48:19;;;;;;;16.38;3.95;;;;;;;;;;1028326;28;20025;-75
2022/10/16 00:48:54;;;;;;;11.55;5.05;;;;;;;;;;1029765;28;20049;-75
2022/10/16 00:49:26;;;;;;;15.63;5.32;;;;;;;;;;1032249;28;20371;-76
2022/10/16 00:50:18;;;;;;;13.25;4.20;;;;;;;;;;1030219;28;20112;-75
2022/10/16 00:50:49;;;;;;;13.45;4.78;;;;;;;;;;1029268;28;20390;-75
2022/10/16 00:51:21;;;;;;;12.75;6.80;;;;;;;;;;1031039;28;20026;-74
2022/10/16 00:51:53;;;;;;;7.03;3.88;;;;;;;;;;1030244;28;20101;-75
2022/10/16 00:52:24;;;;;;;12.43;4.65;;;;;;;;;;1029575;28;20027;-75
2022/10/16 00:52:55;;;;;;;15.30;4.43;;;;;;;;;;1027847;28;20031;-75
2022/10/16 00:53:27;;;;;;;9.63;5.32;;;;;;;;;;1029301;28;20059;-75
2022/10/16 00:53:57;;;;;;;9.05;4.82;;;;;;;;;;1033228;28;20022;-75
2022/10/16 00:54:30;;;;;;;20.35;4.03;;;;;;;;;;1032284;28;20117;-75
2022/10/16 00:55:02;;;;;;;13.35;4.25;;;;;;;;;;1032689;28;21118;-75
2022/10/16 00:55:33;;;;;;;8.95;5.15;;;;;;;;;;1032687;28;20449;-75
2022/10/16 00:56:04;;;;;;;15.25;5.57;;;;;;;;;;1032014;28;20034;-75
2022/10/16 00:56:34;;;;;;;13.38;7.22;;;;;;;;;;1032174;28;20034;-75
2022/10/16 00:57:06;;;;;;;12.23;5.82;;;;;;;;;;1032529;28;20111;-75
2022/10/16 00:57:37;;;;;;;18.48;7.95;;;;;;;;;;1030336;28;20018;-75
2022/10/16 00:58:08;;;;;;;17.90;6.25;;;;;;;;;;1030330;28;20030;-75
2022/10/16 00:58:38;;;;;;;11.85;5.00;;;;;;;;;;1030244;28;20030;-75
2022/10/16 00:59:15;;;;;;;12.15;6.10;;;;;;;;;;1030655;28;20305;-75
2022/10/16 00:59:45;;;;;;;21.63;5.97;;;;;;;;;;1032166;28;20425;-75
2022/10/16 01:00:18;;;;;;;10.70;5.18;;;;;;;;;;1030129;28;20062;-75
2022/10/16 01:00:49;;;;;;;16.77;6.22;;;;;;;;;;1030024;28;20061;-75
2022/10/16 01:01:20;;;;;;;10.35;5.22;;;;;;;;;;1030451;28;20022;-75
2022/10/16 01:01:50;;;;;;;11.80;6.70;;;;;;;;;;1030277;28;20037;-75
2022/10/16 01:02:21;;;;;;;13.02;5.20;;;;;;;;;;1028524;28;20541;-75
2022/10/16 01:02:55;;;;;;;14.10;4.68;;;;;;;;;;1027960;28;20023;-75
2022/10/16 01:03:28;;;;;;;10.90;6.40;;;;;;;;;;1032442;28;20019;-75
2022/10/16 01:03:59;;;;;;;12.90;5.65;;;;;;;;;;1032892;28;20172;-75
2022/10/16 01:04:35;;;;;;;8.90;4.68;;;;;;;;;;1032470;28;20525;-75
2022/10/16 01:05:06;;;;;;;10.82;5.57;;;;;;;;;;1033184;28;20026;-75
2022/10/16 01:05:42;;;;;;;22.17;5.03;;;;;;;;;;1032038;28;20513;-75
2022/10/16 01:06:36;;;;;;;10.85;4.82;;;;;;;;;;1030523;28;20027;-75
2022/10/16 01:07:12;;;;;;;18.17;5.28;;;;;;;;;;1027149;28;20055;-75
2022/10/16 01:08:11;;;;;;;15.15;5.55;;;;;;;;;;1035377;28;20025;-75
2022/10/16 01:08:53;;;;;;;14.30;5.40;;;;;;;;;;1018437;29;20020;-75
2022/10/16 01:09:26;;;;;;;17.85;5.70;;;;;;;;;;1032773;28;20034;-75
2022/10/16 01:10:00;;;;;;;16.17;4.85;;;;;;;;;;1033188;28;20079;-75
2022/10/16 01:10:32;;;;;;;12.82;5.32;;;;;;;;;;1032472;28;20030;-75
2022/10/16 01:11:09;;;;;;;10.68;5.07;;;;;;;;;;1031506;28;20021;-75
2022/10/16 01:11:46;;;;;;;16.95;5.47;;;;;;;;;;1033777;28;20467;-75
2022/10/16 01:12:27;;;;;;;13.02;5.13;;;;;;;;;;1034267;28;20021;-75
2022/10/16 01:13:12;;;;;;;13.80;4.68;;;;;;;;;;1032688;28;20029;-75
2022/10/16 01:13:46;;;;;;;13.60;5.43;;;;;;;;;;1032191;28;20013;-75
2022/10/16 01:14:24;;;;;;;11.93;6.20;;;;;;;;;;1032859;28;20023;-75
2022/10/16 01:14:58;;;;;;;13.93;4.65;;;;;;;;;;1032885;28;20027;-75
2022/10/16 01:15:38;;;;;;;21.38;5.38;;;;;;;;;;1031886;28;20033;-75
2022/10/16 01:16:15;;;;;;;12.75;4.93;;;;;;;;;;1035498;28;20026;-75
2022/10/16 01:16:52;;;;;;;33.22;6.65;;;;;;;;;;1033478;28;20029;-75
2022/10/16 01:17:42;;;;;;;18.13;3.70;;;;;;;;;;1032718;28;20022;-75
2022/10/16 01:18:25;;;;;;;9.65;4.43;;;;;;;;;;1031810;28;20042;-75
2022/10/16 01:19:16;;;;;;;21.50;5.68;;;;;;;;;;1030759;28;20018;-75
2022/10/16 01:20:05;;;;;;;19.25;5.22;;;;;;;;;;1034305;28;20026;-75
2022/10/16 01:20:39;;;;;;;14.25;5.22;;;;;;;;;;1034841;28;20494;-75
2022/10/16 01:21:13;;;;;;;37.05;6.10;;;;;;;;;;1033331;28;20060;-75
2022/10/16 01:21:46;;;;;;;22.23;6.65;;;;;;;;;;1036117;28;20496;-75
2022/10/16 01:22:17;;;;;;;28.67;7.35;;;;;;;;;;1037224;28;20021;-75
2022/10/16 01:23:01;;;;;;;21.75;7.78;;;;;;;;;;1036516;28;20535;-75
2022/10/16 01:23:35;;;;;;;37.65;13.77;;;;;;;;;;1033032;28;20022;-75
2022/10/16 01:24:20;;;;;;;27.00;7.03;;;;;;;;;;1032436;28;20057;-75
2022/10/16 01:24:53;;;;;;;24.13;6.10;;;;;;;;;;1033145;28;20406;-75
2022/10/16 01:25:36;;;;;;;17.23;5.45;;;;;;;;;;1033077;28;20027;-75
2022/10/16 01:26:15;;;;;;;28.23;6.60;;;;;;;;;;1033070;28;20030;-74
2022/10/16 01:26:46;;;;;;;51.47;18.38;;;;;;;;;;1032945;28;20053;-75
2022/10/16 01:27:22;;;;;;;65.18;20.00;;;;;;;;;;1033516;28;20498;-75
2022/10/16 01:27:53;;;;;;;20.85;6.43;;;;;;;;;;1032604;28;20037;-75
2022/10/16 01:28:28;;;;;;;18.70;6.03;;;;;;;;;;1032988;28;20494;-75
2022/10/16 01:29:19;;;;;;;25.27;8.98;;;;;;;;;;1036178;28;20525;-75
2022/10/16 01:29:55;;;;;;;23.65;7.10;;;;;;;;;;1036861;28;20025;-75
2022/10/16 01:30:31;;;;;;;24.52;7.03;;;;;;;;;;1036968;28;20021;-75
2022/10/16 01:31:02;;;;;;;20.55;8.02;;;;;;;;;;1033538;28;20108;-75
2022/10/16 01:31:34;;;;;;;31.33;9.48;;;;;;;;;;1033929;28;20061;-75
2022/10/16 01:32:10;;;;;;;30.08;7.05;;;;;;;;;;1033999;28;20049;-75
2022/10/16 01:32:43;;;;;;;15.40;7.07;;;;;;;;;;1033688;28;20060;-75
2022/10/16 01:33:16;;;;;;;42.08;10.15;;;;;;;;;;1037521;28;20097;-75
2022/10/16 01:33:51;;;;;;;22.40;7.85;;;;;;;;;;1037448;28;20076;-75
2022/10/16 01:34:25;;;;;;;22.58;9.07;;;;;;;;;;1038124;28;20022;-75
2022/10/16 01:35:01;;;;;;;22.55;9.07;;;;;;;;;;1036487;28;20045;-75
2022/10/16 01:35:35;;;;;;;25.75;9.68;;;;;;;;;;1034090;28;20030;-75
2022/10/16 01:36:09;;;;;;;23.52;7.45;;;;;;;;;;1033714;28;20030;-75
2022/10/16 01:36:47;;;;;;;20.90;8.68;;;;;;;;;;1035105;28;20076;-75
2022/10/16 01:37:25;;;;;;;24.38;8.05;;;;;;;;;;1032119;28;20033;-75
2022/10/16 01:38:01;;;;;;;27.73;7.22;;;;;;;;;;1033280;28;20488;-75
2022/10/16 01:38:34;;;;;;;24.20;7.95;;;;;;;;;;1033625;28;20022;-75
2022/10/16 01:39:06;;;;;;;19.55;7.10;;;;;;;;;;1034052;28;20398;-75
2022/10/16 01:39:39;;;;;;;23.15;8.95;;;;;;;;;;1038322;28;20018;-75
2022/10/16 01:40:11;;;;;;;37.42;12.43;;;;;;;;;;1037551;28;20096;-77
2022/10/16 01:40:45;;;;;;;41.97;12.50;;;;;;;;;;1037563;28;20021;-75
2022/10/16 01:41:28;;;;;;;43.72;14.35;;;;;;;;;;1038442;28;20029;-75
2022/10/16 01:42:01;;;;;;;67.68;22.10;;;;;;;;;;1036331;28;20064;-75
2022/10/16 01:42:35;;;;;;;83.40;29.65;;;;;;;;;;1037587;28;20194;-75
2022/10/16 01:43:08;;;;;;;74.07;27.20;;;;;;;;;;1035017;28;20026;-75
2022/10/16 01:43:59;;;;;;;81.15;32.97;;;;;;;;;;1034776;28;20041;-75
2022/10/16 01:44:32;;;;;;;81.38;31.95;;;;;;;;;;1032585;28;20077;-75
2022/10/16 01:45:06;;;;;;;86.57;28.10;;;;;;;;;;1037772;28;20120;-75
2022/10/16 01:45:37;;;;;;;83.32;27.30;;;;;;;;;;1033061;28;20026;-75
2022/10/16 01:46:07;;;;;;;74.18;27.83;;;;;;;;;;1033048;28;20133;-75
2022/10/16 01:46:40;;;;;;;78.15;30.73;;;;;;;;;;1034580;28;20540;-75
2022/10/16 01:47:11;;;;;;;91.93;32.65;;;;;;;;;;1033557;28;20049;-75
2022/10/16 01:47:43;;;;;;;77.78;30.70;;;;;;;;;;1033783;28;20088;-75
2022/10/16 01:48:16;;;;;;;73.43;25.90;;;;;;;;;;1034270;28;20117;-75
2022/10/16 01:48:48;;;;;;;78.15;25.35;;;;;;;;;;1033841;28;20045;-75
2022/10/16 01:49:19;;;;;;;72.00;23.70;;;;;;;;;;1032898;28;20024;-75
2022/10/16 01:49:50;;;;;;;83.38;33.10;;;;;;;;;;1037999;28;20021;-75
2022/10/16 01:50:21;;;;;;;75.45;29.13;;;;;;;;;;1037926;28;20037;-76
2022/10/16 01:51:11;;;;;;;66.15;25.92;;;;;;;;;;1038567;28;20429;-75
2022/10/16 01:51:42;;;;;;;;;;;;;;;;;;1035697;28;20120;-75
2022/10/16 01:52:17;;;;;;;69.85;25.73;;;;;;;;;;1032902;28;19914;-75
2022/10/16 01:52:50;;;;;;;56.33;20.50;;;;;;;;;;1033959;28;20022;-75
2022/10/16 01:53:22;;;;;;;66.82;20.98;;;;;;;;;;1033783;28;20113;-75
2022/10/16 01:53:54;;;;;;;69.80;25.38;;;;;;;;;;1035170;28;20368;-75
2022/10/16 01:54:30;;;;;;;62.03;21.55;;;;;;;;;;1037262;28;20021;-75
2022/10/16 01:55:02;;;;;;;61.40;18.35;;;;;;;;;;1033060;28;20121;-75
2022/10/16 01:55:35;;;;;;;49.40;17.45;;;;;;;;;;1029480;28;20026;-75
2022/10/16 01:56:08;;;;;;;44.55;15.40;;;;;;;;;;1030909;28;20023;-75
2022/10/16 01:56:39;;;;;;;36.53;14.23;;;;;;;;;;1032714;28;20164;-76
2022/10/16 01:57:10;;;;;;;43.08;16.50;;;;;;;;;;1033723;28;20068;-75
2022/10/16 01:57:43;;;;;;;43.20;17.95;;;;;;;;;;1037603;28;20071;-75
2022/10/16 01:58:14;;;;;;;37.67;16.42;;;;;;;;;;1037051;28;20558;-75
2022/10/16 01:58:52;;;;;;;38.90;18.58;;;;;;;;;;1033184;28;20088;-75
2022/10/16 01:59:25;;;;;;;45.03;17.98;;;;;;;;;;1034870;28;20065;-75
2022/10/16 02:00:00;;;;;;;34.40;16.58;;;;;;;;;;1037598;28;20021;-75
2022/10/16 02:00:31;;;;;;;36.45;15.13;;;;;;;;;;1037532;28;20033;-75
2022/10/16 02:01:02;;;;;;;45.28;17.83;;;;;;;;;;1036403;28;20028;-75
2022/10/16 02:01:34;;;;;;;48.75;19.38;;;;;;;;;;1036555;28;20026;-75
2022/10/16 02:02:07;;;;;;;57.33;23.88;;;;;;;;;;1033886;28;20521;-75
2022/10/16 02:02:40;;;;;;;44.10;18.88;;;;;;;;;;1037280;28;20030;-75
2022/10/16 02:03:13;;;;;;;54.00;20.52;;;;;;;;;;1036477;28;20406;-75
2022/10/16 02:03:44;;;;;;;63.67;20.23;;;;;;;;;;1033730;28;20539;-75
2022/10/16 02:04:27;;;;;;;53.85;18.38;;;;;;;;;;1036554;28;20024;-75
2022/10/16 02:05:01;;;;;;;48.55;15.98;;;;;;;;;;1033995;28;20041;-75
2022/10/16 02:05:39;;;;;;;34.92;14.63;;;;;;;;;;1035920;28;20022;-75
2022/10/16 02:06:10;;;;;;;32.05;12.88;;;;;;;;;;1032744;28;20021;-75
2022/10/16 02:06:41;;;;;;;33.70;12.48;;;;;;;;;;1032774;28;20022;-75
2022/10/16 02:07:12;;;;;;;34.30;13.05;;;;;;;;;;1030230;28;20376;-75
2022/10/16 02:07:42;;;;;;;43.83;14.48;;;;;;;;;;1030002;28;20696;-75
2022/10/16 02:08:13;;;;;;;36.88;12.75;;;;;;;;;;1029892;28;20062;-75
2022/10/16 02:08:44;;;;;;;27.55;11.38;;;;;;;;;;1032786;28;20128;-75
2022/10/16 02:09:16;;;;;;;26.23;12.02;;;;;;;;;;1033674;28;20108;-75
2022/10/16 02:09:47;;;;;;;24.77;9.70;;;;;;;;;;1033843;28;20037;-76
2022/10/16 02:10:17;;;;;;;25.25;10.02;;;;;;;;;;1033177;28;20131;-75
2022/10/16 02:10:48;;;;;;;24.30;10.85;;;;;;;;;;1033654;28;20450;-75
2022/10/16 02:11:19;;;;;;;28.60;9.93;;;;;;;;;;1036805;28;20032;-75
2022/10/16 02:11:51;;;;;;;27.77;10.38;;;;;;;;;;1033417;28;20076;-75
2022/10/16 02:12:42;;;;;;;34.83;12.13;;;;;;;;;;1033200;28;20023;-75
2022/10/16 02:13:15;;;;;;;37.97;11.77;;;;;;;;;;1032698;28;20044;-75
2022/10/16 02:13:53;;;;;;;42.35;11.80;;;;;;;;;;1031790;28;20119;-75
2022/10/16 02:14:24;;;;;;;21.27;12.80;;;;;;;;;;1025329;28;20158;-75
2022/10/16 02:14:55;;;;;;;35.83;12.40;;;;;;;;;;1025358;28;20463;-75
2022/10/16 02:15:25;;;;;;;22.90;11.23;;;;;;;;;;1027389;28;20023;-75
2022/10/16 02:15:56;;;;;;;28.05;10.38;;;;;;;;;;1033681;28;20048;-75
2022/10/16 02:16:43;;;;;;;29.17;10.50;;;;;;;;;;1037213;28;20155;-75
2022/10/16 02:17:15;;;;;;;29.13;10.68;;;;;;;;;;1037225;28;20032;-75
2022/10/16 02:17:46;;;;;;;18.10;7.35;;;;;;;;;;1037770;28;20432;-75
2022/10/16 02:18:16;;;;;;;26.08;10.30;;;;;;;;;;1034865;28;20025;-75
2022/10/16 02:18:47;;;;;;;27.67;9.07;;;;;;;;;;1033640;28;20041;-76
2022/10/16 02:19:19;;;;;;;22.90;8.85;;;;;;;;;;1033280;28;20068;-76
2022/10/16 02:19:51;;;;;;;21.60;8.95;;;;;;;;;;1037714;28;20064;-75
2022/10/16 02:20:25;;;;;;;32.22;9.32;;;;;;;;;;1037871;28;20114;-75
2022/10/16 02:20:59;;;;;;;51.78;11.40;;;;;;;;;;1037900;28;20363;-75
2022/10/16 02:21:32;;;;;;;48.67;15.10;;;;;;;;;;1034283;28;20509;-75
2022/10/16 02:22:04;;;;;;;44.10;13.40;;;;;;;;;;1035836;28;20108;-75
2022/10/16 02:22:46;;;;;;;35.80;13.57;;;;;;;;;;1034479;28;20026;-76
2022/10/16 02:23:23;;;;;;;34.70;13.70;;;;;;;;;;1035988;28;20018;-75
2022/10/16 02:23:58;;;;;;;30.20;13.90;;;;;;;;;;1037648;28;20080;-75
2022/10/16 02:24:47;;;;;;;37.78;15.32;;;;;;;;;;1037271;28;20025;-75
2022/10/16 02:25:21;;;;;;;35.30;11.73;;;;;;;;;;1037132;28;20080;-75
2022/10/16 02:25:52;;;;;;;25.77;11.18;;;;;;;;;;1033258;28;20022;-75
2022/10/16 02:26:32;;;;;;;34.13;13.82;;;;;;;;;;1033391;28;20147;-75
2022/10/16 02:27:03;;;;;;;;;;;;;;;;;;1034735;28;20026;-75
2022/10/16 02:27:53;;;;;;;30.98;12.75;;;;;;;;;;1034655;28;19916;-75
2022/10/16 02:28:27;;;;;;;44.90;14.43;;;;;;;;;;1032320;28;20046;-75
2022/10/16 02:29:04;;;;;;;42.92;17.70;;;;;;;;;;1033514;28;20056;-76
2022/10/16 02:29:38;;;;;;;35.78;13.27;;;;;;;;;;1032894;28;20564;-76
2022/10/16 02:30:15;;;;;;;40.97;15.18;;;;;;;;;;1035181;28;20022;-75
2022/10/16 02:30:51;;;;;;;60.65;26.52;;;;;;;;;;1035900;28;20025;-75
2022/10/16 02:31:27;;;;;;;50.25;21.17;;;;;;;;;;1033430;28;20080;-76
2022/10/16 02:32:01;;;;;;;42.47;21.52;;;;;;;;;;1031941;28;20034;-75
2022/10/16 02:32:32;;;;;;;47.63;22.65;;;;;;;;;;1026875;28;20029;-76
2022/10/16 02:33:05;;;;;;;50.30;19.38;;;;;;;;;;1026673;28;20074;-75
2022/10/16 02:33:37;;;;;;;50.55;20.25;;;;;;;;;;1028087;28;20023;-76
2022/10/16 02:34:08;;;;;;;46.72;17.33;;;;;;;;;;1026214;28;20051;-75
2022/10/16 02:34:39;;;;;;;20.23;8.93;;;;;;;;;;1029301;28;20034;-76
2022/10/16 02:35:10;;;;;;;32.00;13.23;;;;;;;;;;1029312;28;20073;-75
2022/10/16 02:35:42;;;;;;;25.38;10.63;;;;;;;;;;1032379;28;20026;-75
2022/10/16 02:36:12;;;;;;;32.40;10.15;;;;;;;;;;1035677;28;20109;-75
2022/10/16 02:36:44;;;;;;;30.85;9.88;;;;;;;;;;1035818;28;20022;-75
2022/10/16 02:37:16;;;;;;;19.95;9.65;;;;;;;;;;1035738;28;20056;-75
2022/10/16 02:37:48;;;;;;;21.33;9.20;;;;;;;;;;1035481;28;20524;-76
2022/10/16 02:38:19;;;;;;;33.88;9.90;;;;;;;;;;1032950;28;20018;-76
2022/10/16 02:38:50;;;;;;;27.70;9.63;;;;;;;;;;1028480;28;20027;-76
2022/10/16 02:39:21;;;;;;;23.10;7.68;;;;;;;;;;1025623;28;20023;-75
2022/10/16 02:39:51;;;;;;;22.67;11.68;;;;;;;;;;1025999;28;20090;-76
2022/10/16 02:40:23;;;;;;;30.27;8.30;;;;;;;;;;1029293;28;20027;-75
2022/10/16 02:40:54;;;;;;;22.88;10.32;;;;;;;;;;1027157;28;20031;-75
2022/10/16 02:41:25;;;;;;;17.90;8.15;;;;;;;;;;1031273;28;20113;-76
2022/10/16 02:41:55;;;;;;;29.90;10.45;;;;;;;;;;1031254;28;20041;-75
2022/10/16 02:42:32;;;;;;;26.55;9.73;;;;;;;;;;1030841;28;20022;-75
2022/10/16 02:43:04;;;;;;;24.85;7.85;;;;;;;;;;1033396;28;20651;-76
2022/10/16 02:43:35;;;;;;;13.13;6.22;;;;;;;;;;1030143;28;20023;-75
2022/10/16 02:44:06;;;;;;;32.28;8.93;;;;;;;;;;1032407;28;20038;-75
2022/10/16 02:44:37;;;;;;;31.33;8.85;;;;;;;;;;1034978;28;20148;-76
2022/10/16 02:45:08;;;;;;;32.15;7.88;;;;;;;;;;1030489;28;20031;-75
2022/10/16 02:45:39;;;;;;;20.42;8.25;;;;;;;;;;1028235;28;20121;-75
2022/10/16 02:46:10;;;;;;;24.58;7.63;;;;;;;;;;1027968;28;20121;-75
2022/10/16 02:46:41;;;;;;;19.52;8.05;;;;;;;;;;1029419;28;20030;-76
2022/10/16 02:47:12;;;;;;;26.35;8.23;;;;;;;;;;1031079;28;20402;-76
2022/10/16 02:47:43;;;;;;;21.92;8.90;;;;;;;;;;1035108;28;20057;-76
2022/10/16 02:48:14;;;;;;;20.08;8.13;;;;;;;;;;1030427;28;20029;-75
2022/10/16 02:48:44;;;;;;;27.42;10.45;;;;;;;;;;1031314;28;20302;-75
2022/10/16 02:49:15;;;;;;;26.75;7.90;;;;;;;;;;1029609;28;20023;-75
2022/10/16 02:49:46;;;;;;;30.88;8.73;;;;;;;;;;1028910;28;20065;-75
2022/10/16 02:50:16;;;;;;;22.65;8.27;;;;;;;;;;1033700;28;20018;-76
2022/10/16 02:50:47;;;;;;;18.55;8.55;;;;;;;;;;1033923;28;20032;-75
2022/10/16 02:51:18;;;;;;;23.15;7.47;;;;;;;;;;1037821;28;20572;-75
2022/10/16 02:51:48;;;;;;;22.90;8.88;;;;;;;;;;1033803;28;20121;-76
2022/10/16 02:52:19;;;;;;;44.35;9.02;;;;;;;;;;1033579;28;20026;-75
2022/10/16 02:52:50;;;;;;;28.90;8.32;;;;;;;;;;1031307;28;20036;-75
2022/10/16 02:53:20;;;;;;;20.77;9.48;;;;;;;;;;1031046;28;20026;-76
2022/10/16 02:53:51;;;;;;;24.20;8.68;;;;;;;;;;1035642;28;20478;-76
2022/10/16 02:54:22;;;;;;;20.40;8.95;;;;;;;;;;1029512;28;20162;-75
2022/10/16 02:54:52;;;;;;;22.40;8.43;;;;;;;;;;1027270;28;20023;-75
2022/10/16 02:55:23;;;;;;;30.15;7.82;;;;;;;;;;1026803;28;20019;-76
2022/10/16 02:55:54;;;;;;;30.77;11.15;;;;;;;;;;1029443;28;20030;-76
2022/10/16 02:56:24;;;;;;;31.52;9.63;;;;;;;;;;1032542;28;20026;-76
2022/10/16 02:56:55;;;;;;;22.27;10.13;;;;;;;;;;1034197;28;20450;-75
2022/10/16 02:57:26;;;;;;;28.23;9.40;;;;;;;;;;1033172;28;20022;-75
2022/10/16 02:57:56;;;;;;;14.57;8.38;;;;;;;;;;1033297;28;20025;-76
2022/10/16 02:58:27;;;;;;;26.85;10.48;;;;;;;;;;1033122;28;20531;-75
2022/10/16 02:58:58;;;;;;;28.95;9.57;;;;;;;;;;1025160;28;20031;-75
2022/10/16 02:59:28;;;;;;;27.55;8.50;;;;;;;;;;1028974;28;20058;-75
2022/10/16 02:59:59;;;;;;;27.85;9.65;;;;;;;;;;1029261;28;20053;-75
2022/10/16 03:00:30;;;;;;;28.63;9.25;;;;;;;;;;1033241;28;20393;-75
2022/10/16 03:01:00;;;;;;;31.00;8.65;;;;;;;;;;1036837;28;20029;-76
2022/10/16 03:01:31;;;;;;;29.35;11.15;;;;;;;;;;1037946;28;20464;-76
2022/10/16 03:02:01;;;;;;;17.60;8.77;;;;;;;;;;1032444;28;20124;-75
2022/10/16 03:02:32;;;;;;;34.20;9.98;;;;;;;;;;1033855;28;20018;-75
2022/10/16 03:03:03;;;;;;;20.15;8.98;;;;;;;;;;1028036;28;20022;-75
2022/10/16 03:03:33;;;;;;;23.35;9.88;;;;;;;;;;1027307;28;20076;-75
2022/10/16 03:04:04;;;;;;;26.23;9.25;;;;;;;;;;1031042;28;20018;-75
2022/10/16 03:04:35;;;;;;;19.65;10.07;;;;;;;;;;1031413;28;20018;-76
2022/10/16 03:05:05;;;;;;;26.38;8.48;;;;;;;;;;1031552;28;20495;-75
2022/10/16 03:05:36;;;;;;;29.27;9.02;;;;;;;;;;1029464;28;20072;-75
2022/10/16 03:06:07;;;;;;;24.20;7.72;;;;;;;;;;1027673;28;20042;-75
2022/10/16 03:06:37;;;;;;;18.85;8.13;;;;;;;;;;1027402;28;20027;-75
2022/10/16 03:07:08;;;;;;;22.20;9.15;;;;;;;;;;1027727;28;20030;-75
2022/10/16 03:07:39;;;;;;;28.77;9.82;;;;;;;;;;1027639;28;20391;-75
2022/10/16 03:08:09;;;;;;;22.00;9.55;;;;;;;;;;1029544;28;20022;-75
2022/10/16 03:08:40;;;;;;;19.85;9.50;;;;;;;;;;1029325;28;20022;-75
2022/10/16 03:09:11;;;;;;;23.90;8.57;;;;;;;;;;1030221;28;20422;-75
2022/10/16 03:09:41;;;;;;;18.58;10.45;;;;;;;;;;1033730;28;20469;-75
2022/10/16 03:10:12;;;;;;;32.83;8.45;;;;;;;;;;1033234;28;20030;-75
2022/10/16 03:10:43;;;;;;;19.02;9.98;;;;;;;;;;1033675;28;20165;-75
2022/10/16 03:11:13;;;;;;;37.03;10.68;;;;;;;;;;1037544;28;20465;-75
2022/10/16 03:11:44;;;;;;;25.83;9.70;;;;;;;;;;1036696;28;20022;-75
2022/10/16 03:12:15;;;;;;;19.02;8.45;;;;;;;;;;1036687;28;20076;-75
2022/10/16 03:12:46;;;;;;;15.65;9.00;;;;;;;;;;1029028;28;20049;-75
2022/10/16 03:13:20;;;;;;;21.25;9.35;;;;;;;;;;1029530;28;20068;-75
2022/10/16 03:13:50;;;;;;;25.13;9.00;;;;;;;;;;1028704;28;20045;-75
2022/10/16 03:14:22;;;;;;;23.73;8.38;;;;;;;;;;1029978;28;20026;-75
2022/10/16 03:14:56;;;;;;;29.17;9.07;;;;;;;;;;1032946;28;20030;-75
2022/10/16 03:15:28;;;;;;;24.13;9.38;;;;;;;;;;1037289;28;20017;-75
2022/10/16 03:15:59;;;;;;;30.40;9.25;;;;;;;;;;1036792;28;20068;-76
2022/10/16 03:16:30;;;;;;;27.20;9.30;;;;;;;;;;1036838;28;20044;-75